Time;durP1;ratioP1;P1;durP2;ratioP2;P2;SDS_P1;SDS_P2;PMS_P1;PMS_P2;Temp;Humidity;BMP_temperature;BMP_pressure;BME280_temperature;BME280_humidity;BME280_pressure;Samples;Min_cycle;Max_cycle;Signal;HPM_P1;HPM_P2
2023/07/10 00:01:16;;;;;;;9.77;6.55;;;16.60;99.90;;;;;;5074185;28;20024;-63
2023/07/10 00:03:42;;;;;;;10.60;7.45;;;16.60;99.90;;;;;;5074221;28;20090;-63
2023/07/10 00:06:14;;;;;;;9.18;7.00;;;16.60;99.90;;;;;;5056256;28;20055;-63
2023/07/10 00:08:40;;;;;;;10.68;7.00;;;16.60;99.90;;;;;;5074278;28;20028;-63
2023/07/10 00:11:23;;;;;;;11.80;7.68;;;16.60;99.90;;;;;;5074039;28;20118;-63
2023/07/10 00:13:49;;;;;;;10.88;7.25;;;16.50;99.90;;;;;;5056361;28;20025;-63
2023/07/10 00:16:21;;;;;;;9.35;7.20;;;16.40;99.90;;;;;;5074297;28;20035;-63
2023/07/10 00:18:49;;;;;;;11.40;6.88;;;16.50;99.90;;;;;;5074154;28;20025;-63
2023/07/10 00:21:15;;;;;;;10.57;6.78;;;16.40;99.90;;;;;;5058672;28;20028;-64
2023/07/10 00:23:41;;;;;;;8.95;6.10;;;16.40;99.90;;;;;;5060151;28;20025;-63
2023/07/10 00:26:14;;;;;;;11.45;7.47;;;16.40;99.90;;;;;;5078115;28;20103;-63
2023/07/10 00:28:40;;;;;;;10.63;7.35;;;16.40;99.90;;;;;;5060247;28;20035;-63
2023/07/10 00:31:07;;;;;;;13.15;7.57;;;16.40;99.90;;;;;;5078038;28;20029;-63
2023/07/10 00:33:33;;;;;;;10.00;7.18;;;16.30;99.90;;;;;;5078077;28;20020;-64
2023/07/10 00:35:59;;;;;;;11.27;7.45;;;16.40;99.90;;;;;;5060115;28;20054;-63
2023/07/10 00:38:30;;;;;;;10.73;7.40;;;16.30;99.90;;;;;;5077916;28;20041;-63
2023/07/10 00:40:57;;;;;;;9.48;6.60;;;16.40;99.90;;;;;;5078002;28;20032;-63
2023/07/10 00:43:42;;;;;;;9.60;6.47;;;16.30;99.90;;;;;;5077896;28;20440;-63
2023/07/10 00:46:31;;;;;;;10.95;8.02;;;16.30;99.90;;;;;;5059906;28;20060;-63
2023/07/10 00:49:08;;;;;;;12.98;7.32;;;16.30;99.90;;;;;;5077617;28;20032;-63
2023/07/10 00:52:01;;;;;;;11.20;6.88;;;16.30;99.90;;;;;;5059780;28;20540;-63
2023/07/10 00:54:34;;;;;;;12.10;7.07;;;16.40;99.90;;;;;;5022186;28;20040;-64
2023/07/10 00:57:03;;;;;;;11.10;6.47;;;16.30;99.90;;;;;;5039570;28;20116;-63
2023/07/10 00:59:33;;;;;;;10.25;6.70;;;16.20;99.90;;;;;;5039877;28;20064;-63
2023/07/10 01:02:08;;;;;;;9.70;6.68;;;16.20;99.90;;;;;;5057511;28;20029;-64
2023/07/10 01:04:36;;;;;;;10.85;7.50;;;16.20;99.90;;;;;;5057523;28;20083;-64
2023/07/10 01:07:02;;;;;;;9.77;6.80;;;16.10;99.90;;;;;;5039601;28;20029;-63
2023/07/10 01:09:28;;;;;;;10.48;7.82;;;16.10;99.90;;;;;;5057198;28;20025;-63
2023/07/10 01:11:54;;;;;;;8.77;6.70;;;16.10;99.90;;;;;;5022992;28;20096;-63
2023/07/10 01:14:22;;;;;;;13.38;6.47;;;16.10;99.90;;;;;;5057263;28;20090;-64
2023/07/10 01:16:48;;;;;;;10.00;6.95;;;16.00;99.90;;;;;;5057294;28;20078;-63
2023/07/10 01:19:22;;;;;;;9.63;7.57;;;16.00;99.90;;;;;;5057214;28;20040;-63
2023/07/10 01:21:50;;;;;;;8.35;7.13;;;16.00;99.90;;;;;;5057097;28;20126;-63
2023/07/10 01:24:16;;;;;;;9.02;6.20;;;16.00;99.90;;;;;;5057159;28;20037;-63
2023/07/10 01:26:42;;;;;;;11.23;7.05;;;16.00;99.90;;;;;;5057022;28;20037;-64
2023/07/10 01:29:41;;;;;;;11.75;7.10;;;15.90;99.90;;;;;;5022525;28;20059;-63
2023/07/10 01:32:14;;;;;;;11.77;7.00;;;15.90;99.90;;;;;;5056249;28;20044;-63
2023/07/10 01:34:53;;;;;;;9.07;7.10;;;15.90;99.90;;;;;;5056946;28;20039;-63
2023/07/10 01:37:19;;;;;;;11.43;7.28;;;15.90;99.90;;;;;;5038956;28;20029;-64
2023/07/10 01:39:50;;;;;;;10.35;7.15;;;15.90;99.90;;;;;;5039008;28;20028;-64
2023/07/10 01:42:16;;;;;;;7.95;7.10;;;15.90;99.90;;;;;;5039010;28;20036;-64
2023/07/10 01:44:45;;;;;;;8.10;6.53;;;15.80;99.90;;;;;;5056712;28;20435;-63
2023/07/10 01:47:13;;;;;;;10.23;6.72;;;15.80;99.90;;;;;;5038790;28;20120;-63
2023/07/10 01:49:45;;;;;;;11.07;7.15;;;15.80;99.90;;;;;;5038766;28;20045;-64
2023/07/10 01:52:15;;;;;;;11.40;7.32;;;15.80;99.90;;;;;;5056563;28;20087;-64
2023/07/10 01:54:42;;;;;;;10.10;6.85;;;15.70;99.90;;;;;;5039732;28;20052;-64
2023/07/10 01:57:09;;;;;;;11.18;7.43;;;15.70;99.90;;;;;;5076368;28;20048;-63
2023/07/10 01:59:35;;;;;;;10.27;7.13;;;15.70;99.90;;;;;;5058383;28;20036;-63
2023/07/10 02:02:01;;;;;;;9.93;7.00;;;15.70;99.90;;;;;;5076513;28;20059;-64
2023/07/10 02:04:29;;;;;;;8.68;6.53;;;15.70;99.90;;;;;;5076761;28;20462;-63
2023/07/10 02:06:55;;;;;;;16.00;7.53;;;15.60;99.90;;;;;;5076423;28;20028;-64
2023/07/10 02:09:28;;;;;;;10.23;6.55;;;15.60;99.90;;;;;;5076233;28;20033;-64
2023/07/10 02:11:55;;;;;;;9.85;7.05;;;15.60;99.90;;;;;;5058048;28;20032;-64
2023/07/10 02:14:21;;;;;;;10.10;7.28;;;15.60;99.90;;;;;;5076271;28;20036;-63
2023/07/10 02:16:48;;;;;;;11.20;7.82;;;15.60;99.90;;;;;;5076343;28;20016;-63
2023/07/10 02:19:16;;;;;;;9.40;7.10;;;15.50;99.90;;;;;;5058041;28;20036;-63
2023/07/10 02:21:42;;;;;;;12.75;7.28;;;15.50;99.90;;;;;;5058143;28;20028;-64
2023/07/10 02:24:08;;;;;;;9.40;6.88;;;15.50;99.90;;;;;;5076064;28;20035;-64
2023/07/10 02:26:34;;;;;;;10.65;7.40;;;15.50;99.90;;;;;;5075858;28;20095;-63
2023/07/10 02:29:01;;;;;;;12.07;7.90;;;15.50;99.90;;;;;;5075990;28;20493;-64
2023/07/10 02:31:27;;;;;;;9.25;7.28;;;15.50;99.90;;;;;;5075863;28;20024;-64
2023/07/10 02:33:54;;;;;;;11.63;7.47;;;15.40;99.90;;;;;;5075852;28;20048;-64
2023/07/10 02:36:21;;;;;;;13.57;7.00;;;15.50;99.90;;;;;;5075785;28;20028;-64
2023/07/10 02:38:47;;;;;;;11.00;7.57;;;15.50;99.90;;;;;;5057876;28;20028;-64
2023/07/10 02:41:13;;;;;;;10.10;6.63;;;15.50;99.90;;;;;;5075609;28;20092;-63
2023/07/10 02:43:39;;;;;;;10.20;7.72;;;15.40;99.90;;;;;;5057685;28;20466;-63
2023/07/10 02:46:05;;;;;;;11.63;6.85;;;15.40;99.90;;;;;;5057716;28;20033;-64
2023/07/10 02:48:31;;;;;;;9.93;7.18;;;15.50;99.90;;;;;;5075357;28;20470;-64
2023/07/10 02:50:57;;;;;;;12.82;7.40;;;15.40;99.90;;;;;;5075537;28;20553;-64
2023/07/10 02:53:23;;;;;;;11.20;7.15;;;15.40;99.90;;;;;;5075414;28;20044;-64
2023/07/10 02:55:48;;;;;;;9.30;6.70;;;15.40;99.90;;;;;;5075126;28;20028;-64
2023/07/10 02:58:15;;;;;;;8.85;7.10;;;15.30;99.90;;;;;;5075296;28;20052;-64
2023/07/10 03:00:40;;;;;;;12.05;7.03;;;15.30;99.90;;;;;;5057385;28;20100;-64
2023/07/10 03:03:06;;;;;;;10.75;7.15;;;15.30;99.90;;;;;;5075185;28;20119;-63
2023/07/10 03:05:32;;;;;;;15.15;7.25;;;15.30;99.90;;;;;;5075246;28;20024;-64
2023/07/10 03:07:58;;;;;;;12.05;7.85;;;15.30;99.90;;;;;;5057224;28;20025;-64
2023/07/10 03:10:24;;;;;;;12.25;7.60;;;15.20;99.90;;;;;;5040459;28;20029;-64
2023/07/10 03:12:50;;;;;;;14.00;8.20;;;15.30;99.90;;;;;;5075102;28;20382;-64
2023/07/10 03:15:17;;;;;;;11.88;7.40;;;15.30;99.90;;;;;;5075135;28;20028;-64
2023/07/10 03:17:43;;;;;;;9.95;7.55;;;15.30;99.90;;;;;;5057034;28;20055;-64
2023/07/10 03:20:10;;;;;;;10.80;7.63;;;15.20;99.90;;;;;;5057074;28;20028;-64
2023/07/10 03:22:36;;;;;;;12.00;7.13;;;15.30;99.90;;;;;;5074810;28;20017;-64
2023/07/10 03:25:02;;;;;;;9.15;7.50;;;15.30;99.90;;;;;;5074865;28;20035;-64
2023/07/10 03:27:29;;;;;;;12.57;7.78;;;15.20;99.90;;;;;;5074864;28;20033;-64
2023/07/10 03:29:55;;;;;;;9.57;7.68;;;15.20;99.90;;;;;;5074702;28;20060;-64
2023/07/10 03:32:21;;;;;;;10.25;8.65;;;15.20;99.90;;;;;;5074794;28;20025;-64
2023/07/10 03:34:50;;;;;;;10.60;7.80;;;15.20;99.90;;;;;;5074807;28;20103;-64
2023/07/10 03:37:16;;;;;;;11.98;7.75;;;15.20;99.90;;;;;;5074655;28;20028;-64
2023/07/10 03:39:42;;;;;;;12.07;8.10;;;15.20;99.90;;;;;;5056646;28;20035;-64
2023/07/10 03:42:07;;;;;;;13.75;7.60;;;15.20;99.90;;;;;;5074659;28;20086;-64
2023/07/10 03:44:34;;;;;;;9.82;7.88;;;15.10;99.90;;;;;;5074601;28;20032;-64
2023/07/10 03:47:00;;;;;;;12.38;7.93;;;15.20;99.90;;;;;;5074614;28;20036;-64
2023/07/10 03:49:26;;;;;;;14.48;8.75;;;15.20;99.90;;;;;;5056458;28;20482;-64
2023/07/10 03:51:52;;;;;;;12.68;8.30;;;15.10;99.90;;;;;;5074397;28;20043;-64
2023/07/10 03:54:18;;;;;;;9.85;8.00;;;15.20;99.90;;;;;;5074593;28;20078;-63
2023/07/10 03:56:44;;;;;;;14.30;9.15;;;15.20;99.90;;;;;;5055863;28;20021;-64
2023/07/10 03:59:10;;;;;;;12.45;8.98;;;15.20;99.90;;;;;;5036381;28;20049;-64
2023/07/10 04:01:36;;;;;;;12.02;8.77;;;15.30;99.90;;;;;;5054336;28;20074;-64
2023/07/10 04:04:03;;;;;;;18.42;8.73;;;15.30;99.90;;;;;;5054507;28;20041;-64
2023/07/10 04:06:29;;;;;;;11.60;7.95;;;15.30;99.90;;;;;;5036286;28;20112;-64
2023/07/10 04:08:58;;;;;;;12.27;8.38;;;15.30;99.90;;;;;;5019887;28;20494;-64
2023/07/10 04:11:26;;;;;;;9.75;8.18;;;15.30;99.90;;;;;;5054151;28;20546;-64
2023/07/10 04:13:52;;;;;;;12.15;8.02;;;15.30;99.90;;;;;;5054143;28;20033;-64
2023/07/10 04:16:29;;;;;;;11.43;8.20;;;15.40;99.90;;;;;;5054288;28;20028;-64
2023/07/10 04:18:55;;;;;;;14.27;9.60;;;15.40;99.90;;;;;;5054241;28;20040;-64
2023/07/10 04:21:27;;;;;;;15.45;8.63;;;15.50;99.90;;;;;;5019833;28;20047;-64
2023/07/10 04:23:53;;;;;;;14.85;8.73;;;15.50;99.90;;;;;;5036225;28;20041;-64
2023/07/10 04:26:20;;;;;;;12.80;8.10;;;15.60;99.90;;;;;;5054178;28;20040;-64
2023/07/10 04:28:48;;;;;;;15.35;8.80;;;15.70;99.90;;;;;;5054037;28;20029;-64
2023/07/10 04:31:15;;;;;;;13.60;8.93;;;15.80;99.90;;;;;;5054277;28;20060;-63
2023/07/10 04:33:41;;;;;;;11.60;8.10;;;15.80;99.90;;;;;;5053948;28;20029;-63
2023/07/10 04:36:08;;;;;;;12.18;8.23;;;15.80;99.90;;;;;;5054066;28;20029;-64
2023/07/10 04:38:34;;;;;;;12.40;8.65;;;15.90;99.90;;;;;;5036000;28;20075;-64
2023/07/10 04:41:02;;;;;;;13.57;8.68;;;16.00;99.90;;;;;;5053911;28;20103;-64
2023/07/10 04:43:30;;;;;;;14.00;8.40;;;16.00;99.90;;;;;;5053978;28;20029;-64
2023/07/10 04:46:00;;;;;;;12.00;8.57;;;16.10;99.90;;;;;;5054091;28;20112;-63
2023/07/10 04:48:26;;;;;;;15.23;8.80;;;16.20;99.90;;;;;;5053749;28;20037;-63
2023/07/10 04:50:53;;;;;;;11.65;8.77;;;16.40;99.90;;;;;;5036053;28;20033;-64
2023/07/10 04:53:21;;;;;;;14.30;8.00;;;16.50;99.90;;;;;;5036158;28;20025;-64
2023/07/10 04:55:51;;;;;;;17.48;9.15;;;16.60;99.90;;;;;;5063717;28;20075;-63
2023/07/10 04:58:18;;;;;;;18.20;9.45;;;16.70;99.90;;;;;;5073767;28;20529;-64
2023/07/10 05:00:50;;;;;;;13.80;9.02;;;16.80;99.90;;;;;;5073757;28;20424;-63
2023/07/10 05:03:16;;;;;;;12.82;8.95;;;16.90;99.90;;;;;;5055768;28;20135;-64
2023/07/10 05:05:54;;;;;;;21.63;9.10;;;17.10;99.90;;;;;;5055936;28;20063;-64
2023/07/10 05:08:21;;;;;;;13.95;9.85;;;17.20;99.90;;;;;;5057852;28;20496;-64
2023/07/10 05:10:50;;;;;;;18.65;9.27;;;17.30;99.90;;;;;;5077523;28;20028;-64
2023/07/10 05:13:18;;;;;;;16.85;9.70;;;17.30;99.90;;;;;;5059326;28;20032;-64
2023/07/10 05:15:45;;;;;;;16.05;9.15;;;17.40;99.90;;;;;;5077411;28;20462;-64
2023/07/10 05:18:11;;;;;;;14.38;9.10;;;17.40;99.90;;;;;;5077126;28;20538;-63
2023/07/10 05:20:39;;;;;;;20.65;10.75;;;17.60;99.90;;;;;;5077230;28;20067;-63
2023/07/10 05:23:04;;;;;;;23.48;12.10;;;17.60;99.90;;;;;;5076802;28;20033;-64
2023/07/10 05:25:31;;;;;;;33.55;11.90;;;17.60;99.90;;;;;;5077401;28;20170;-63
2023/07/10 05:27:58;;;;;;;20.02;11.10;;;17.70;99.90;;;;;;5090309;28;20028;-63
2023/07/10 05:30:26;;;;;;;18.02;10.98;;;17.90;99.90;;;;;;5096289;28;20028;-63
2023/07/10 05:32:52;;;;;;;19.90;10.52;;;18.00;99.90;;;;;;5084928;28;20036;-63
2023/07/10 05:35:17;;;;;;;19.08;10.93;;;18.10;99.90;;;;;;5059679;28;20024;-64
2023/07/10 05:37:43;;;;;;;15.73;10.43;;;18.30;99.90;;;;;;5076837;28;20390;-64
2023/07/10 05:40:09;;;;;;;14.25;10.27;;;18.40;99.90;;;;;;5058832;28;20139;-64
2023/07/10 05:42:35;;;;;;;18.05;10.27;;;18.60;99.90;;;;;;5041987;28;20289;-64
2023/07/10 05:45:01;;;;;;;20.98;11.10;;;18.70;99.90;;;;;;5076646;28;20352;-64
2023/07/10 05:47:28;;;;;;;23.85;12.32;;;18.80;99.90;;;;;;5058613;28;20474;-64
2023/07/10 05:49:54;;;;;;;22.50;11.60;;;18.90;99.90;;;;;;5058564;28;20033;-64
2023/07/10 05:52:20;;;;;;;20.10;11.60;;;18.90;99.90;;;;;;5076198;28;20501;-64
2023/07/10 05:54:45;;;;;;;20.17;11.77;;;19.10;99.90;;;;;;5058364;28;20032;-64
2023/07/10 05:57:11;;;;;;;19.05;10.93;;;19.20;99.90;;;;;;5076366;28;20131;-64
2023/07/10 05:59:37;;;;;;;25.13;11.68;;;19.40;99.90;;;;;;5076774;28;20032;-64
2023/07/10 06:02:03;;;;;;;23.42;11.10;;;19.50;99.90;;;;;;5076083;28;20374;-64
2023/07/10 06:04:32;;;;;;;20.98;12.45;;;19.60;99.90;;;;;;5048255;28;20032;-64
2023/07/10 06:06:57;;;;;;;18.15;10.73;;;19.60;99.90;;;;;;5066471;28;20105;-64
2023/07/10 06:09:23;;;;;;;25.35;12.93;;;19.80;99.90;;;;;;5096049;28;20078;-64
2023/07/10 06:11:49;;;;;;;29.67;13.27;;;19.90;99.90;;;;;;5096233;28;20313;-64
2023/07/10 06:14:15;;;;;;;25.45;13.75;;;20.00;99.90;;;;;;5080442;28;20037;-64
2023/07/10 06:16:42;;;;;;;32.80;17.33;;;20.20;99.90;;;;;;5075798;28;20021;-64
2023/07/10 06:19:08;;;;;;;29.65;15.27;;;20.40;99.90;;;;;;5057691;28;20033;-64
2023/07/10 06:21:34;;;;;;;31.20;15.00;;;20.40;99.90;;;;;;5073771;28;20052;-64
2023/07/10 06:24:15;;;;;;;28.40;15.70;;;20.60;99.90;;;;;;5061072;28;20394;-64
2023/07/10 06:26:43;;;;;;;26.08;14.02;;;20.70;99.90;;;;;;5064901;28;20032;-64
2023/07/10 06:29:16;;;;;;;31.58;14.35;;;20.90;99.90;;;;;;5075360;28;20025;-64
2023/07/10 06:31:42;;;;;;;32.33;16.25;;;21.10;99.90;;;;;;5064265;28;20736;-64
2023/07/10 06:34:08;;;;;;;30.20;15.20;;;21.10;99.90;;;;;;5062079;28;20031;-64
2023/07/10 06:36:37;;;;;;;31.45;15.75;;;21.30;99.90;;;;;;5092612;28;20020;-64
2023/07/10 06:39:13;;;;;;;30.95;14.20;;;21.50;99.90;;;;;;5094717;28;20028;-63
2023/07/10 06:41:39;;;;;;;34.95;16.48;;;21.70;99.90;;;;;;5056266;28;20470;-64
2023/07/10 06:44:10;;;;;;;41.95;16.42;;;21.70;99.90;;;;;;5053826;28;20079;-64
2023/07/10 06:46:37;;;;;;;27.15;14.65;;;21.90;99.90;;;;;;5049576;28;20071;-64
2023/07/10 06:49:06;;;;;;;38.45;16.45;;;22.00;99.90;;;;;;5090441;28;20028;-64
2023/07/10 06:51:38;;;;;;;30.55;14.80;;;22.20;99.90;;;;;;5095391;28;20042;-64
2023/07/10 06:54:04;;;;;;;39.65;17.05;;;22.30;99.90;;;;;;5083496;28;20024;-64
2023/07/10 06:56:32;;;;;;;33.45;17.25;;;22.60;99.90;;;;;;5059363;28;20697;-64
2023/07/10 06:58:59;;;;;;;28.98;15.02;;;22.80;99.90;;;;;;5056715;28;20059;-64
2023/07/10 07:01:25;;;;;;;35.92;15.90;;;23.00;99.90;;;;;;5074647;28;20036;-64
2023/07/10 07:03:51;;;;;;;35.10;14.10;;;23.20;99.70;;;;;;5057482;28;20191;-64
2023/07/10 07:06:17;;;;;;;25.63;13.38;;;23.40;99.80;;;;;;5075673;28;20399;-64
2023/07/10 07:08:48;;;;;;;31.85;13.85;;;23.50;98.60;;;;;;5075413;28;20028;-64
2023/07/10 07:11:15;;;;;;;26.50;14.00;;;23.70;97.80;;;;;;5074482;28;20016;-65
2023/07/10 07:13:41;;;;;;;27.42;12.82;;;24.00;97.70;;;;;;5073786;28;20025;-65
2023/07/10 07:16:07;;;;;;;32.67;12.70;;;24.40;97.10;;;;;;5075436;28;20024;-65
2023/07/10 07:18:33;;;;;;;28.52;12.10;;;24.60;97.00;;;;;;5072064;28;20406;-65
2023/07/10 07:20:59;;;;;;;26.05;12.73;;;24.90;95.00;;;;;;5063957;28;20032;-65
2023/07/10 07:23:27;;;;;;;22.70;12.35;;;25.20;93.80;;;;;;5079036;28;20031;-65
2023/07/10 07:25:54;;;;;;;26.73;11.38;;;25.50;94.90;;;;;;5095671;28;20024;-65
2023/07/10 07:28:20;;;;;;;24.95;11.57;;;25.80;91.90;;;;;;5095459;28;20028;-65
2023/07/10 07:30:49;;;;;;;30.50;11.95;;;26.10;91.50;;;;;;5094653;28;20021;-65
2023/07/10 07:33:20;;;;;;;23.50;12.00;;;26.40;89.70;;;;;;5095347;28;20055;-65
2023/07/10 07:35:47;;;;;;;23.02;10.73;;;26.80;85.60;;;;;;5095562;28;20083;-65
2023/07/10 07:38:14;;;;;;;24.73;10.00;;;26.90;78.50;;;;;;5095405;28;20093;-65
2023/07/10 07:40:40;;;;;;;23.08;11.02;;;27.00;78.60;;;;;;5095408;28;20028;-65
2023/07/10 07:43:14;;;;;;;19.63;9.50;;;27.50;75.60;;;;;;5095201;28;20027;-65
2023/07/10 07:45:59;;;;;;;17.85;9.02;;;27.80;73.30;;;;;;5066749;28;20478;-65
2023/07/10 07:48:25;;;;;;;19.52;8.98;;;28.20;71.00;;;;;;5054030;28;20513;-65
2023/07/10 07:51:07;;;;;;;13.90;8.32;;;28.50;72.30;;;;;;5054272;28;20028;-65
2023/07/10 07:53:38;;;;;;;13.02;7.57;;;28.60;66.00;;;;;;5054366;28;20131;-65
2023/07/10 07:56:04;;;;;;;18.73;8.32;;;28.80;68.30;;;;;;5067430;28;20020;-65
2023/07/10 07:58:31;;;;;;;13.65;8.65;;;29.00;67.20;;;;;;5074267;28;20045;-65
2023/07/10 08:00:59;;;;;;;15.88;8.00;;;29.30;65.90;;;;;;5073949;28;20474;-65
2023/07/10 08:03:26;;;;;;;11.85;6.75;;;29.60;63.80;;;;;;5055974;28;20398;-65
2023/07/10 08:05:52;;;;;;;9.77;5.55;;;29.70;65.60;;;;;;5073511;28;20033;-65
2023/07/10 08:08:22;;;;;;;11.07;6.25;;;29.90;61.50;;;;;;5074625;28;20059;-65
2023/07/10 08:10:49;;;;;;;9.18;6.15;;;30.10;60.50;;;;;;5074250;28;20032;-65
2023/07/10 08:13:17;;;;;;;9.25;5.57;;;30.10;62.50;;;;;;5056578;28;20028;-65
2023/07/10 08:15:44;;;;;;;11.10;6.05;;;29.80;60.60;;;;;;5062198;28;20033;-65
2023/07/10 08:18:10;;;;;;;10.13;5.97;;;30.40;59.50;;;;;;5071333;28;20059;-65
2023/07/10 08:20:36;;;;;;;11.00;5.45;;;30.40;56.50;;;;;;5065465;28;20466;-65
2023/07/10 08:23:03;;;;;;;11.30;5.82;;;30.40;52.00;;;;;;5057524;28;20071;-65
2023/07/10 08:25:30;;;;;;;11.90;6.10;;;30.30;52.20;;;;;;5073502;28;20028;-64
2023/07/10 08:27:58;;;;;;;15.07;6.28;;;30.40;53.20;;;;;;5073664;28;20035;-65
2023/07/10 08:30:25;;;;;;;15.13;7.55;;;30.80;59.10;;;;;;5069052;28;20032;-64
2023/07/10 08:32:51;;;;;;;13.57;6.93;;;31.30;54.50;;;;;;5094426;28;20165;-65
2023/07/10 08:35:17;;;;;;;14.00;6.53;;;31.60;51.50;;;;;;5093570;28;20052;-65
2023/07/10 08:37:43;;;;;;;13.38;6.60;;;31.80;53.90;;;;;;5081747;28;20056;-65
2023/07/10 08:40:24;;;;;;;11.15;6.25;;;32.20;50.30;;;;;;5067321;28;20029;-65
2023/07/10 08:42:50;;;;;;;15.18;6.45;;;32.40;48.90;;;;;;5073165;28;20035;-65
2023/07/10 08:45:27;;;;;;;9.48;6.13;;;32.30;47.70;;;;;;5077383;28;20033;-65
2023/07/10 08:48:01;;;;;;;9.20;5.65;;;32.20;48.30;;;;;;5077611;28;20051;-65
2023/07/10 08:50:30;;;;;;;13.77;5.82;;;32.30;48.30;;;;;;5070901;28;20028;-64
2023/07/10 08:53:02;;;;;;;9.53;5.10;;;32.70;48.90;;;;;;5056476;28;20020;-65
2023/07/10 08:55:45;;;;;;;13.48;5.88;;;32.90;49.80;;;;;;5089134;28;20817;-63
2023/07/10 08:58:21;;;;;;;14.18;6.30;;;33.10;48.10;;;;;;5076354;28;20474;-65
2023/07/10 09:00:53;;;;;;;13.18;5.20;;;33.40;51.80;;;;;;5076999;28;20435;-65
2023/07/10 09:03:39;;;;;;;;;;;33.70;47.70;;;;;;5051859;28;20029;-65
2023/07/10 09:06:06;;;;;;;10.90;6.07;;;33.80;47.20;;;;;;5056840;28;19995;-65
2023/07/10 09:08:33;;;;;;;10.40;5.60;;;34.00;44.90;;;;;;5074793;28;20029;-65
2023/07/10 09:11:05;;;;;;;9.73;5.75;;;34.10;44.00;;;;;;5076891;28;20052;-65
2023/07/10 09:13:58;;;;;;;15.50;6.70;;;34.10;45.40;;;;;;5057820;28;20060;-65
2023/07/10 09:16:58;;;;;;;13.80;6.85;;;34.20;42.30;;;;;;5077324;28;20528;-65
2023/07/10 09:19:28;;;;;;;12.65;5.75;;;34.20;41.20;;;;;;5077068;28;20032;-65
2023/07/10 09:21:54;;;;;;;17.25;6.05;;;34.30;42.40;;;;;;5076627;28;20455;-66
2023/07/10 09:24:22;;;;;;;11.10;5.82;;;34.50;42.30;;;;;;5077022;28;20056;-65
2023/07/10 09:26:58;;;;;;;14.95;5.47;;;34.50;40.50;;;;;;5069080;28;20082;-66
2023/07/10 09:29:35;;;;;;;10.88;5.15;;;34.20;42.80;;;;;;5039647;28;20469;-65
2023/07/10 09:32:34;;;;;;;8.18;5.07;;;34.10;44.70;;;;;;5075415;28;20550;-65
2023/07/10 09:35:00;;;;;;;8.27;5.68;;;34.60;40.50;;;;;;5078211;28;20615;-65
2023/07/10 09:37:36;;;;;;;11.20;6.22;;;34.70;42.10;;;;;;5096768;28;20282;-66
2023/07/10 09:40:56;;;;;;;10.75;5.63;;;34.50;41.50;;;;;;5078736;28;20046;-65
2023/07/10 09:43:25;;;;;;;11.43;5.25;;;34.40;43.40;;;;;;4978842;28;20039;-65
2023/07/10 09:45:58;;;;;;;6.88;5.05;;;35.00;41.10;;;;;;4992497;28;20038;-66
2023/07/10 09:48:36;;;;;;;10.90;5.43;;;35.50;38.30;;;;;;4976191;28;20069;-65
2023/07/10 09:51:05;;;;;;;7.43;4.85;;;35.70;40.40;;;;;;4991159;28;20126;-66
2023/07/10 09:53:36;;;;;;;15.25;5.70;;;35.40;37.70;;;;;;4994094;28;20471;-65
2023/07/10 09:56:02;;;;;;;10.68;5.50;;;34.20;37.60;;;;;;4980616;28;20056;-65
2023/07/10 09:58:31;;;;;;;11.77;5.35;;;34.70;38.80;;;;;;4974469;28;20061;-65
2023/07/10 10:01:04;;;;;;;8.07;4.22;;;35.60;41.80;;;;;;4975097;28;20392;-65
2023/07/10 10:03:41;;;;;;;8.20;4.05;;;35.70;40.20;;;;;;4974300;28;20529;-66
2023/07/10 10:06:28;;;;;;;9.45;4.55;;;35.60;36.40;;;;;;4974473;28;20532;-66
2023/07/10 10:08:55;;;;;;;5.93;4.00;;;35.60;39.70;;;;;;4972881;28;20109;-65
2023/07/10 10:11:43;;;;;;;4.95;3.70;;;35.30;31.80;;;;;;4963258;28;20039;-65
2023/07/10 10:14:15;;;;;;;5.18;4.07;;;35.40;34.30;;;;;;4973203;28;20501;-65
2023/07/10 10:16:54;;;;;;;5.72;3.92;;;36.00;37.10;;;;;;4997660;28;20040;-66
2023/07/10 10:19:39;;;;;;;8.95;3.92;;;35.70;34.40;;;;;;5075670;28;20027;-65
2023/07/10 10:22:14;;;;;;;8.90;4.20;;;36.30;35.50;;;;;;5067577;28;20539;-66
2023/07/10 10:24:40;;;;;;;9.73;4.97;;;36.40;33.40;;;;;;5058100;28;20036;-66
2023/07/10 10:27:40;;;;;;;5.75;3.92;;;35.50;33.40;;;;;;5076306;28;20025;-65
2023/07/10 10:30:09;;;;;;;14.35;6.35;;;35.50;33.60;;;;;;5072027;28;20079;-66
2023/07/10 10:33:01;;;;;;;10.55;6.00;;;35.80;32.20;;;;;;5074412;28;20028;-65
2023/07/10 10:36:00;;;;;;;6.88;4.45;;;35.30;36.90;;;;;;5055638;28;20131;-66
2023/07/10 10:38:26;;;;;;;;;;;35.80;37.20;;;;;;5075438;28;20098;-65
2023/07/10 10:41:05;;;;;;;10.68;4.70;;;36.10;31.60;;;;;;5076028;28;19908;-65
2023/07/10 10:43:53;;;;;;;8.52;4.45;;;36.50;32.70;;;;;;5073666;28;20736;-65
2023/07/10 10:46:31;;;;;;;10.95;4.10;;;36.20;35.00;;;;;;5075963;28;20078;-65
2023/07/10 10:49:08;;;;;;;7.07;4.10;;;35.70;36.40;;;;;;5075868;28;20029;-65
2023/07/10 10:51:45;;;;;;;10.20;5.28;;;35.90;34.50;;;;;;5075731;28;20051;-65
2023/07/10 10:54:27;;;;;;;10.13;5.18;;;36.50;30.20;;;;;;5075638;28;20111;-66
2023/07/10 10:56:59;;;;;;;10.30;5.07;;;36.20;32.30;;;;;;5075278;28;20028;-65
2023/07/10 10:59:28;;;;;;;5.72;3.60;;;36.50;30.00;;;;;;5075788;28;20078;-65
2023/07/10 11:02:20;;;;;;;7.13;3.92;;;36.70;29.30;;;;;;5075734;28;20032;-66
2023/07/10 11:04:54;;;;;;;7.75;3.92;;;36.80;31.50;;;;;;5074836;28;20370;-66
2023/07/10 11:07:23;;;;;;;10.20;4.63;;;37.20;29.70;;;;;;5075397;28;20028;-65
2023/07/10 11:09:56;;;;;;;7.43;4.55;;;37.40;30.80;;;;;;5057346;28;20032;-65
2023/07/10 11:12:34;;;;;;;16.58;10.25;;;37.10;30.70;;;;;;5074424;28;20029;-65
2023/07/10 11:15:16;;;;;;;17.45;11.25;;;37.30;30.40;;;;;;5069870;28;20071;-65
2023/07/10 11:17:46;;;;;;;19.67;11.48;;;37.00;30.40;;;;;;5083022;28;20107;-65
2023/07/10 11:20:15;;;;;;;14.05;9.20;;;36.80;30.40;;;;;;5089305;28;20031;-65
2023/07/10 11:22:52;;;;;;;10.02;7.50;;;36.70;31.00;;;;;;5069767;28;20025;-65
2023/07/10 11:25:29;;;;;;;12.50;6.68;;;36.60;29.80;;;;;;5060452;28;20032;-65
2023/07/10 11:28:03;;;;;;;17.10;7.00;;;36.40;32.50;;;;;;5067864;28;20081;-65
2023/07/10 11:30:35;;;;;;;11.82;5.85;;;36.20;31.30;;;;;;5058294;28;20029;-65
2023/07/10 11:33:14;;;;;;;16.92;6.57;;;36.30;31.60;;;;;;5033038;28;20119;-65
2023/07/10 11:36:17;;;;;;;8.43;5.40;;;35.90;32.60;;;;;;5063570;28;20028;-65
2023/07/10 11:38:58;;;;;;;10.25;6.00;;;36.50;31.90;;;;;;5029981;28;20097;-65
2023/07/10 11:41:35;;;;;;;7.32;5.55;;;36.70;33.00;;;;;;5062003;28;20457;-65
2023/07/10 11:44:20;;;;;;;5.93;5.05;;;37.20;28.50;;;;;;5060082;28;20035;-65
2023/07/10 11:47:05;;;;;;;9.95;5.45;;;36.90;28.70;;;;;;5069460;28;20052;-65
2023/07/10 11:49:59;;;;;;;7.75;5.20;;;37.30;29.70;;;;;;5070578;28;20056;-65
2023/07/10 11:52:27;;;;;;;17.52;6.63;;;37.40;28.30;;;;;;5070775;28;20113;-65
2023/07/10 11:54:56;;;;;;;10.38;5.75;;;36.80;29.80;;;;;;5068376;28;20064;-65
2023/07/10 11:57:34;;;;;;;14.80;8.13;;;36.70;29.80;;;;;;5039120;28;20041;-65
2023/07/10 12:00:02;;;;;;;8.73;5.55;;;37.00;29.80;;;;;;5051714;28;20390;-65
2023/07/10 12:02:54;;;;;;;10.13;6.37;;;36.80;27.50;;;;;;5070076;28;20123;-65
2023/07/10 12:05:43;;;;;;;14.80;5.25;;;37.00;28.30;;;;;;5071123;28;20297;-65
2023/07/10 12:08:14;;;;;;;7.90;4.50;;;37.10;28.90;;;;;;5065967;28;20177;-65
2023/07/10 12:10:51;;;;;;;8.02;5.07;;;36.90;27.10;;;;;;5052505;28;20101;-65
2023/07/10 12:13:27;;;;;;;9.82;5.35;;;37.20;24.90;;;;;;5053181;28;20465;-65
2023/07/10 12:15:57;;;;;;;13.18;5.53;;;36.90;27.80;;;;;;5071235;28;20032;-65
2023/07/10 12:18:34;;;;;;;15.80;6.20;;;37.10;30.80;;;;;;5074825;28;20398;-65
2023/07/10 12:21:03;;;;;;;9.13;6.15;;;36.00;28.60;;;;;;5060753;28;20021;-65
2023/07/10 12:23:31;;;;;;;16.02;6.32;;;35.10;29.40;;;;;;5046572;28;20036;-65
2023/07/10 12:26:07;;;;;;;14.95;6.75;;;35.70;32.90;;;;;;5072836;28;20028;-65
2023/07/10 12:28:33;;;;;;;12.60;6.63;;;36.20;30.70;;;;;;5074549;28;20028;-65
2023/07/10 12:30:59;;;;;;;9.13;6.13;;;36.30;36.20;;;;;;5074023;28;20032;-65
2023/07/10 12:33:47;;;;;;;15.65;6.45;;;36.50;35.40;;;;;;5074248;28;20028;-65
2023/07/10 12:36:38;;;;;;;10.38;6.55;;;36.20;33.20;;;;;;5074317;28;20485;-65
2023/07/10 12:39:07;;;;;;;9.40;6.25;;;36.20;27.60;;;;;;5054492;28;20037;-65
2023/07/10 12:41:40;;;;;;;12.20;6.55;;;36.10;29.30;;;;;;5054952;28;20055;-65
2023/07/10 12:44:23;;;;;;;11.90;7.28;;;35.70;27.40;;;;;;5036788;28;20506;-65
2023/07/10 12:47:04;;;;;;;12.30;6.93;;;35.40;29.80;;;;;;5073146;28;20432;-65
2023/07/10 12:49:35;;;;;;;17.30;7.45;;;36.10;29.90;;;;;;5066985;28;20086;-65
2023/07/10 12:52:06;;;;;;;12.65;6.18;;;36.30;28.40;;;;;;5066818;28;20119;-65
2023/07/10 12:54:41;;;;;;;14.60;7.50;;;36.40;34.50;;;;;;5056919;28;20064;-65
2023/07/10 12:57:26;;;;;;;17.33;7.20;;;35.80;29.90;;;;;;5062091;28;20049;-65